sensor_id;sensor_type;location;lat;lon;timestamp;temperature;humidity
20349;DHT22;10332;50.208;18.988;2023-02-28T00:01:33;1.90;10.00
20349;DHT22;10332;50.208;18.988;2023-02-28T00:04:01;1.90;10.20
20349;DHT22;10332;50.208;18.988;2023-02-28T00:06:29;1.80;10.20
20349;DHT22;10332;50.208;18.988;2023-02-28T00:08:56;1.80;10.10
20349;DHT22;10332;50.208;18.988;2023-02-28T00:11:24;1.80;10.20
20349;DHT22;10332;50.208;18.988;2023-02-28T00:13:51;1.80;10.60
20349;DHT22;10332;50.208;18.988;2023-02-28T00:16:21;1.70;11.00
20349;DHT22;10332;50.208;18.988;2023-02-28T00:18:50;1.70;11.60
20349;DHT22;10332;50.208;18.988;2023-02-28T00:21:18;1.70;12.40
20349;DHT22;10332;50.208;18.988;2023-02-28T00:23:46;1.70;12.50
20349;DHT22;10332;50.208;18.988;2023-02-28T00:26:14;1.70;13.60
20349;DHT22;10332;50.208;18.988;2023-02-28T00:28:42;1.70;13.90
20349;DHT22;10332;50.208;18.988;2023-02-28T00:31:09;1.70;13.70
20349;DHT22;10332;50.208;18.988;2023-02-28T00:33:36;1.70;14.00
20349;DHT22;10332;50.208;18.988;2023-02-28T00:36:09;1.70;14.20
20349;DHT22;10332;50.208;18.988;2023-02-28T00:38:39;1.60;14.40
20349;DHT22;10332;50.208;18.988;2023-02-28T00:41:08;1.60;14.60
20349;DHT22;10332;50.208;18.988;2023-02-28T00:43:37;1.60;15.10
20349;DHT22;10332;50.208;18.988;2023-02-28T00:46:07;1.50;15.80
20349;DHT22;10332;50.208;18.988;2023-02-28T00:48:34;1.50;17.10
20349;DHT22;10332;50.208;18.988;2023-02-28T00:51:03;1.50;18.10
20349;DHT22;10332;50.208;18.988;2023-02-28T00:53:31;1.50;18.30
20349;DHT22;10332;50.208;18.988;2023-02-28T00:55:59;1.40;18.60
20349;DHT22;10332;50.208;18.988;2023-02-28T00:58:27;1.40;19.00
20349;DHT22;10332;50.208;18.988;2023-02-28T01:00:55;1.40;19.20
20349;DHT22;10332;50.208;18.988;2023-02-28T01:03:22;1.40;19.20
20349;DHT22;10332;50.208;18.988;2023-02-28T01:05:51;1.40;19.70
20349;DHT22;10332;50.208;18.988;2023-02-28T01:08:20;1.40;20.20
20349;DHT22;10332;50.208;18.988;2023-02-28T01:10:48;1.40;21.10
20349;DHT22;10332;50.208;18.988;2023-02-28T01:13:16;1.40;21.50
20349;DHT22;10332;50.208;18.988;2023-02-28T01:15:49;1.40;21.90
20349;DHT22;10332;50.208;18.988;2023-02-28T01:18:19;1.50;22.00
20349;DHT22;10332;50.208;18.988;2023-02-28T01:20:48;1.50;22.50
20349;DHT22;10332;50.208;18.988;2023-02-28T01:23:16;1.60;21.80
20349;DHT22;10332;50.208;18.988;2023-02-28T01:25:43;1.50;21.20
20349;DHT22;10332;50.208;18.988;2023-02-28T01:28:11;1.50;21.20
20349;DHT22;10332;50.208;18.988;2023-02-28T01:30:39;1.50;20.90
20349;DHT22;10332;50.208;18.988;2023-02-28T01:33:06;1.40;21.00
20349;DHT22;10332;50.208;18.988;2023-02-28T01:35:34;1.40;21.30
20349;DHT22;10332;50.208;18.988;2023-02-28T01:38:02;1.30;21.90
20349;DHT22;10332;50.208;18.988;2023-02-28T01:40:47;1.20;22.80
20349;DHT22;10332;50.208;18.988;2023-02-28T01:43:24;1.10;23.60
20349;DHT22;10332;50.208;18.988;2023-02-28T01:45:56;1.00;25.50
20349;DHT22;10332;50.208;18.988;2023-02-28T01:48:31;1.00;27.00
20349;DHT22;10332;50.208;18.988;2023-02-28T01:51:13;0.90;28.30
20349;DHT22;10332;50.208;18.988;2023-02-28T01:53:52;0.80;27.20
20349;DHT22;10332;50.208;18.988;2023-02-28T01:56:32;0.70;28.30
20349;DHT22;10332;50.208;18.988;2023-02-28T01:59:03;0.70;28.60
20349;DHT22;10332;50.208;18.988;2023-02-28T02:01:31;0.70;29.30
20349;DHT22;10332;50.208;18.988;2023-02-28T02:04:01;0.70;29.90
20349;DHT22;10332;50.208;18.988;2023-02-28T02:06:36;0.70;30.60
20349;DHT22;10332;50.208;18.988;2023-02-28T02:09:06;0.60;31.70
20349;DHT22;10332;50.208;18.988;2023-02-28T02:11:36;0.50;32.30
20349;DHT22;10332;50.208;18.988;2023-02-28T02:31:22;0.30;39.40
20349;DHT22;10332;50.208;18.988;2023-02-28T02:34:08;0.20;41.40
20349;DHT22;10332;50.208;18.988;2023-02-28T02:37:05;0.10;44.10
20349;DHT22;10332;50.208;18.988;2023-02-28T02:40:18;0.00;46.30
20349;DHT22;10332;50.208;18.988;2023-02-28T02:43:13;0.00;47.30
20349;DHT22;10332;50.208;18.988;2023-02-28T02:45:53;-0.10;48.60
20349;DHT22;10332;50.208;18.988;2023-02-28T02:48:26;-0.10;49.40
20349;DHT22;10332;50.208;18.988;2023-02-28T02:51:01;-0.10;50.50
20349;DHT22;10332;50.208;18.988;2023-02-28T02:53:44;-0.10;51.50
20349;DHT22;10332;50.208;18.988;2023-02-28T02:56:22;-0.20;52.20
20349;DHT22;10332;50.208;18.988;2023-02-28T02:58:56;-0.20;52.80
20349;DHT22;10332;50.208;18.988;2023-02-28T03:01:31;-0.20;53.80
20349;DHT22;10332;50.208;18.988;2023-02-28T03:04:04;-0.20;54.40
20349;DHT22;10332;50.208;18.988;2023-02-28T03:06:41;-0.30;54.50
20349;DHT22;10332;50.208;18.988;2023-02-28T03:09:09;-0.30;55.30
20349;DHT22;10332;50.208;18.988;2023-02-28T03:11:37;-0.40;56.10
20349;DHT22;10332;50.208;18.988;2023-02-28T03:17:10;-0.40;56.90
20349;DHT22;10332;50.208;18.988;2023-02-28T03:23:07;-0.40;56.90
20349;DHT22;10332;50.208;18.988;2023-02-28T03:25:49;-0.40;57.00
20349;DHT22;10332;50.208;18.988;2023-02-28T03:31:38;-0.40;58.00
20349;DHT22;10332;50.208;18.988;2023-02-28T03:36:43;-0.40;58.10
20349;DHT22;10332;50.208;18.988;2023-02-28T03:39:24;-0.40;59.80
20349;DHT22;10332;50.208;18.988;2023-02-28T03:42:05;-0.50;59.80
20349;DHT22;10332;50.208;18.988;2023-02-28T03:44:51;-0.50;60.00
20349;DHT22;10332;50.208;18.988;2023-02-28T03:50:22;-0.60;61.40
20349;DHT22;10332;50.208;18.988;2023-02-28T03:55:49;-0.70;65.80
20349;DHT22;10332;50.208;18.988;2023-02-28T03:58:35;-0.70;66.10
20349;DHT22;10332;50.208;18.988;2023-02-28T04:01:16;-0.70;66.90
20349;DHT22;10332;50.208;18.988;2023-02-28T04:03:50;-0.80;68.10
20349;DHT22;10332;50.208;18.988;2023-02-28T04:06:19;-0.80;68.90
20349;DHT22;10332;50.208;18.988;2023-02-28T04:08:49;-0.80;69.30
20349;DHT22;10332;50.208;18.988;2023-02-28T04:11:22;-0.80;70.00
20349;DHT22;10332;50.208;18.988;2023-02-28T04:14:07;-0.80;70.40
20349;DHT22;10332;50.208;18.988;2023-02-28T04:16:38;-0.80;70.80
20349;DHT22;10332;50.208;18.988;2023-02-28T04:19:08;-0.90;71.20
20349;DHT22;10332;50.208;18.988;2023-02-28T04:21:42;-0.90;70.80
20349;DHT22;10332;50.208;18.988;2023-02-28T04:24:14;-0.80;71.40
20349;DHT22;10332;50.208;18.988;2023-02-28T04:26:46;-0.90;72.20
20349;DHT22;10332;50.208;18.988;2023-02-28T04:29:34;-0.80;73.30
20349;DHT22;10332;50.208;18.988;2023-02-28T04:32:02;-0.90;74.60
20349;DHT22;10332;50.208;18.988;2023-02-28T04:34:31;-1.00;75.70
20349;DHT22;10332;50.208;18.988;2023-02-28T04:37:00;-1.00;76.90
20349;DHT22;10332;50.208;18.988;2023-02-28T04:39:40;-1.00;77.80
20349;DHT22;10332;50.208;18.988;2023-02-28T04:42:08;-1.10;78.60
20349;DHT22;10332;50.208;18.988;2023-02-28T04:44:36;-1.00;78.80
20349;DHT22;10332;50.208;18.988;2023-02-28T04:47:03;-1.00;78.90
20349;DHT22;10332;50.208;18.988;2023-02-28T04:49:31;-1.00;79.30
20349;DHT22;10332;50.208;18.988;2023-02-28T04:51:59;-1.10;80.10
20349;DHT22;10332;50.208;18.988;2023-02-28T04:54:27;-1.10;80.70
20349;DHT22;10332;50.208;18.988;2023-02-28T04:56:55;-1.10;81.20
20349;DHT22;10332;50.208;18.988;2023-02-28T04:59:23;-1.10;81.80
20349;DHT22;10332;50.208;18.988;2023-02-28T05:01:50;-1.10;82.10
20349;DHT22;10332;50.208;18.988;2023-02-28T05:04:18;-1.10;82.80
20349;DHT22;10332;50.208;18.988;2023-02-28T05:06:46;-1.10;83.30
20349;DHT22;10332;50.208;18.988;2023-02-28T05:09:13;-1.10;83.60
20349;DHT22;10332;50.208;18.988;2023-02-28T05:11:41;-1.20;83.90
20349;DHT22;10332;50.208;18.988;2023-02-28T05:14:13;-1.20;83.90
20349;DHT22;10332;50.208;18.988;2023-02-28T05:16:41;-1.20;84.00
20349;DHT22;10332;50.208;18.988;2023-02-28T05:19:09;-1.20;84.30
20349;DHT22;10332;50.208;18.988;2023-02-28T05:21:47;-1.20;84.60
20349;DHT22;10332;50.208;18.988;2023-02-28T05:24:19;-1.20;84.60
20349;DHT22;10332;50.208;18.988;2023-02-28T05:26:51;-1.20;84.70
20349;DHT22;10332;50.208;18.988;2023-02-28T05:29:20;-1.20;84.90
20349;DHT22;10332;50.208;18.988;2023-02-28T05:31:48;-1.20;84.90
20349;DHT22;10332;50.208;18.988;2023-02-28T05:34:16;-1.20;84.90
20349;DHT22;10332;50.208;18.988;2023-02-28T05:36:43;-1.20;85.20
20349;DHT22;10332;50.208;18.988;2023-02-28T05:39:11;-1.20;85.40
20349;DHT22;10332;50.208;18.988;2023-02-28T05:41:43;-1.20;85.20
20349;DHT22;10332;50.208;18.988;2023-02-28T05:44:11;-1.20;85.30
20349;DHT22;10332;50.208;18.988;2023-02-28T05:46:39;-1.20;85.30
20349;DHT22;10332;50.208;18.988;2023-02-28T05:49:06;-1.20;85.60
20349;DHT22;10332;50.208;18.988;2023-02-28T05:51:34;-1.20;86.00
20349;DHT22;10332;50.208;18.988;2023-02-28T05:54:03;-1.20;86.10
20349;DHT22;10332;50.208;18.988;2023-02-28T05:56:31;-1.20;86.00
20349;DHT22;10332;50.208;18.988;2023-02-28T05:59:01;-1.20;86.00
20349;DHT22;10332;50.208;18.988;2023-02-28T06:01:47;-1.10;85.80
20349;DHT22;10332;50.208;18.988;2023-02-28T06:04:20;-1.10;85.70
20349;DHT22;10332;50.208;18.988;2023-02-28T06:06:58;-1.10;85.40
20349;DHT22;10332;50.208;18.988;2023-02-28T06:09:25;-1.00;84.90
20349;DHT22;10332;50.208;18.988;2023-02-28T06:11:53;-1.00;84.00
20349;DHT22;10332;50.208;18.988;2023-02-28T06:14:21;-0.90;83.40
20349;DHT22;10332;50.208;18.988;2023-02-28T06:16:48;-1.00;83.60
20349;DHT22;10332;50.208;18.988;2023-02-28T06:19:16;-0.90;83.80
20349;DHT22;10332;50.208;18.988;2023-02-28T06:21:44;-0.80;83.10
20349;DHT22;10332;50.208;18.988;2023-02-28T06:24:12;-0.80;83.20
20349;DHT22;10332;50.208;18.988;2023-02-28T06:26:39;-0.80;83.20
20349;DHT22;10332;50.208;18.988;2023-02-28T06:29:07;-0.70;82.50
20349;DHT22;10332;50.208;18.988;2023-02-28T06:31:34;-0.70;81.70
20349;DHT22;10332;50.208;18.988;2023-02-28T06:34:02;-0.60;81.90
20349;DHT22;10332;50.208;18.988;2023-02-28T06:36:30;-0.60;81.60
20349;DHT22;10332;50.208;18.988;2023-02-28T06:38:57;-0.50;81.70
20349;DHT22;10332;50.208;18.988;2023-02-28T06:41:26;-0.50;80.90
20349;DHT22;10332;50.208;18.988;2023-02-28T06:43:54;-0.40;80.20
20349;DHT22;10332;50.208;18.988;2023-02-28T06:46:23;-0.30;80.20
20349;DHT22;10332;50.208;18.988;2023-02-28T06:48:50;-0.30;80.00
20349;DHT22;10332;50.208;18.988;2023-02-28T06:51:19;-0.20;80.00
20349;DHT22;10332;50.208;18.988;2023-02-28T06:53:49;-0.10;79.00
20349;DHT22;10332;50.208;18.988;2023-02-28T06:56:18;0.00;78.60
20349;DHT22;10332;50.208;18.988;2023-02-28T06:58:49;0.10;77.60
20349;DHT22;10332;50.208;18.988;2023-02-28T07:01:18;0.10;77.00
20349;DHT22;10332;50.208;18.988;2023-02-28T07:03:46;0.20;76.50
20349;DHT22;10332;50.208;18.988;2023-02-28T07:06:23;0.30;75.70
20349;DHT22;10332;50.208;18.988;2023-02-28T07:08:54;0.40;74.60
20349;DHT22;10332;50.208;18.988;2023-02-28T07:11:23;0.50;72.50
20349;DHT22;10332;50.208;18.988;2023-02-28T07:13:54;0.60;70.80
20349;DHT22;10332;50.208;18.988;2023-02-28T07:16:23;0.60;70.20
20349;DHT22;10332;50.208;18.988;2023-02-28T07:18:53;0.70;70.30
20349;DHT22;10332;50.208;18.988;2023-02-28T07:21:22;0.80;68.70
20349;DHT22;10332;50.208;18.988;2023-02-28T07:23:50;0.80;67.90
20349;DHT22;10332;50.208;18.988;2023-02-28T07:26:19;0.90;67.30
20349;DHT22;10332;50.208;18.988;2023-02-28T07:28:48;1.00;65.30
20349;DHT22;10332;50.208;18.988;2023-02-28T07:31:16;1.10;63.70
20349;DHT22;10332;50.208;18.988;2023-02-28T07:33:45;1.20;61.80
20349;DHT22;10332;50.208;18.988;2023-02-28T07:36:16;1.30;60.70
20349;DHT22;10332;50.208;18.988;2023-02-28T07:38:47;1.50;58.00
20349;DHT22;10332;50.208;18.988;2023-02-28T07:41:19;1.60;56.20
20349;DHT22;10332;50.208;18.988;2023-02-28T07:43:47;1.80;53.20
20349;DHT22;10332;50.208;18.988;2023-02-28T07:46:16;1.90;50.90
20349;DHT22;10332;50.208;18.988;2023-02-28T07:48:45;2.10;50.00
20349;DHT22;10332;50.208;18.988;2023-02-28T07:51:12;2.30;48.40
20349;DHT22;10332;50.208;18.988;2023-02-28T07:53:40;2.50;48.90
20349;DHT22;10332;50.208;18.988;2023-02-28T07:56:08;2.80;47.00
20349;DHT22;10332;50.208;18.988;2023-02-28T07:58:35;3.20;43.20
20349;DHT22;10332;50.208;18.988;2023-02-28T08:01:08;3.50;37.10
20349;DHT22;10332;50.208;18.988;2023-02-28T08:03:37;3.80;34.50
20349;DHT22;10332;50.208;18.988;2023-02-28T08:06:11;4.40;34.80
20349;DHT22;10332;50.208;18.988;2023-02-28T08:08:43;5.40;25.30
20349;DHT22;10332;50.208;18.988;2023-02-28T08:11:11;6.80;15.50
20349;DHT22;10332;50.208;18.988;2023-02-28T08:13:39;8.50;1.00
20349;DHT22;10332;50.208;18.988;2023-02-28T08:16:06;9.10;1.00
20349;DHT22;10332;50.208;18.988;2023-02-28T08:18:34;9.60;1.00
20349;DHT22;10332;50.208;18.988;2023-02-28T08:21:21;9.50;1.00
20349;DHT22;10332;50.208;18.988;2023-02-28T08:23:49;9.20;1.00
20349;DHT22;10332;50.208;18.988;2023-02-28T08:26:18;9.30;1.00
20349;DHT22;10332;50.208;18.988;2023-02-28T08:28:46;9.20;1.00
20349;DHT22;10332;50.208;18.988;2023-02-28T08:31:15;9.10;1.00
20349;DHT22;10332;50.208;18.988;2023-02-28T08:33:43;9.10;1.00
20349;DHT22;10332;50.208;18.988;2023-02-28T08:36:17;9.20;1.00
20349;DHT22;10332;50.208;18.988;2023-02-28T08:38:45;9.00;1.00
20349;DHT22;10332;50.208;18.988;2023-02-28T08:41:13;8.80;1.00
20349;DHT22;10332;50.208;18.988;2023-02-28T08:43:41;8.60;1.00
20349;DHT22;10332;50.208;18.988;2023-02-28T08:46:11;8.70;1.00
20349;DHT22;10332;50.208;18.988;2023-02-28T08:48:40;8.60;1.00
20349;DHT22;10332;50.208;18.988;2023-02-28T08:51:11;8.40;1.00
20349;DHT22;10332;50.208;18.988;2023-02-28T08:53:43;8.20;1.00
20349;DHT22;10332;50.208;18.988;2023-02-28T08:56:14;8.00;1.00
20349;DHT22;10332;50.208;18.988;2023-02-28T08:58:44;7.80;1.00
20349;DHT22;10332;50.208;18.988;2023-02-28T09:01:20;7.90;1.00
20349;DHT22;10332;50.208;18.988;2023-02-28T09:03:50;8.10;1.00
20349;DHT22;10332;50.208;18.988;2023-02-28T09:06:21;8.00;1.00
20349;DHT22;10332;50.208;18.988;2023-02-28T09:08:50;8.10;1.00
20349;DHT22;10332;50.208;18.988;2023-02-28T09:11:19;8.00;1.00
20349;DHT22;10332;50.208;18.988;2023-02-28T09:13:46;8.10;1.00
20349;DHT22;10332;50.208;18.988;2023-02-28T09:16:16;8.30;1.00
20349;DHT22;10332;50.208;18.988;2023-02-28T09:18:44;9.30;1.00
20349;DHT22;10332;50.208;18.988;2023-02-28T09:21:15;10.20;1.00
20349;DHT22;10332;50.208;18.988;2023-02-28T09:23:45;11.70;1.00
20349;DHT22;10332;50.208;18.988;2023-02-28T09:26:22;13.20;1.00
20349;DHT22;10332;50.208;18.988;2023-02-28T09:28:52;13.90;1.00
20349;DHT22;10332;50.208;18.988;2023-02-28T09:31:26;13.50;1.00
20349;DHT22;10332;50.208;18.988;2023-02-28T09:33:56;12.70;1.00
20349;DHT22;10332;50.208;18.988;2023-02-28T09:36:26;12.10;1.00
20349;DHT22;10332;50.208;18.988;2023-02-28T09:39:09;11.80;1.00
20349;DHT22;10332;50.208;18.988;2023-02-28T09:41:45;11.80;1.00
20349;DHT22;10332;50.208;18.988;2023-02-28T09:44:37;11.80;1.00
20349;DHT22;10332;50.208;18.988;2023-02-28T09:47:34;12.00;1.00
20349;DHT22;10332;50.208;18.988;2023-02-28T09:52:54;11.80;1.00
20349;DHT22;10332;50.208;18.988;2023-02-28T09:55:36;13.10;1.00
20349;DHT22;10332;50.208;18.988;2023-02-28T09:58:28;15.20;1.00
20349;DHT22;10332;50.208;18.988;2023-02-28T10:01:40;17.70;1.00
20349;DHT22;10332;50.208;18.988;2023-02-28T10:10:41;27.60;1.00
20349;DHT22;10332;50.208;18.988;2023-02-28T10:16:07;32.70;1.00
20349;DHT22;10332;50.208;18.988;2023-02-28T10:18:46;34.40;1.00
20349;DHT22;10332;50.208;18.988;2023-02-28T10:21:29;35.50;1.00
20349;DHT22;10332;50.208;18.988;2023-02-28T10:24:47;36.20;1.00
20349;DHT22;10332;50.208;18.988;2023-02-28T10:27:15;37.00;1.00
20349;DHT22;10332;50.208;18.988;2023-02-28T10:29:45;37.50;1.00
20349;DHT22;10332;50.208;18.988;2023-02-28T10:32:24;38.20;1.00
20349;DHT22;10332;50.208;18.988;2023-02-28T10:37:33;39.10;1.00
20349;DHT22;10332;50.208;18.988;2023-02-28T10:40:27;39.40;1.00
20349;DHT22;10332;50.208;18.988;2023-02-28T10:46:02;39.80;1.00
20349;DHT22;10332;50.208;18.988;2023-02-28T10:48:44;39.80;1.00
20349;DHT22;10332;50.208;18.988;2023-02-28T10:51:16;40.40;1.00
20349;DHT22;10332;50.208;18.988;2023-02-28T10:53:52;40.20;1.00
20349;DHT22;10332;50.208;18.988;2023-02-28T10:56:29;39.70;1.00
20349;DHT22;10332;50.208;18.988;2023-02-28T11:01:44;40.00;1.00
20349;DHT22;10332;50.208;18.988;2023-02-28T11:09:57;42.60;1.00
20349;DHT22;10332;50.208;18.988;2023-02-28T11:12:37;43.50;1.00
20349;DHT22;10332;50.208;18.988;2023-02-28T11:15:26;43.20;1.00
20349;DHT22;10332;50.208;18.988;2023-02-28T11:20:52;40.80;1.00
20349;DHT22;10332;50.208;18.988;2023-02-28T11:23:25;40.60;1.00
20349;DHT22;10332;50.208;18.988;2023-02-28T11:25:58;41.00;1.00
20349;DHT22;10332;50.208;18.988;2023-02-28T11:33:54;43.60;1.00
20349;DHT22;10332;50.208;18.988;2023-02-28T11:36:28;44.00;1.00
20349;DHT22;10332;50.208;18.988;2023-02-28T11:39:09;44.00;1.00
20349;DHT22;10332;50.208;18.988;2023-02-28T11:45:16;44.80;1.00
20349;DHT22;10332;50.208;18.988;2023-02-28T11:53:15;44.80;1.00
20349;DHT22;10332;50.208;18.988;2023-02-28T11:55:37;45.10;1.00
20349;DHT22;10332;50.208;18.988;2023-02-28T12:07:18;43.20;1.00
20349;DHT22;10332;50.208;18.988;2023-02-28T12:13:16;41.50;1.00
20349;DHT22;10332;50.208;18.988;2023-02-28T12:19:43;42.40;1.00
20349;DHT22;10332;50.208;18.988;2023-02-28T12:22:29;42.90;1.00
20349;DHT22;10332;50.208;18.988;2023-02-28T12:27:37;44.80;1.00
20349;DHT22;10332;50.208;18.988;2023-02-28T12:30:17;44.90;1.00
20349;DHT22;10332;50.208;18.988;2023-02-28T12:35:56;43.60;1.00
20349;DHT22;10332;50.208;18.988;2023-02-28T12:38:34;42.80;1.00
20349;DHT22;10332;50.208;18.988;2023-02-28T12:41:39;42.20;1.00
20349;DHT22;10332;50.208;18.988;2023-02-28T12:44:18;42.30;1.00
20349;DHT22;10332;50.208;18.988;2023-02-28T12:47:08;42.40;1.00
20349;DHT22;10332;50.208;18.988;2023-02-28T12:49:51;42.20;1.00
20349;DHT22;10332;50.208;18.988;2023-02-28T12:55:43;42.50;1.00
20349;DHT22;10332;50.208;18.988;2023-02-28T13:10:13;44.10;1.00
20349;DHT22;10332;50.208;18.988;2023-02-28T13:12:52;44.20;1.00
20349;DHT22;10332;50.208;18.988;2023-02-28T13:15:25;43.70;1.00
20349;DHT22;10332;50.208;18.988;2023-02-28T13:17:58;43.00;1.00
20349;DHT22;10332;50.208;18.988;2023-02-28T13:20:32;42.50;1.00
20349;DHT22;10332;50.208;18.988;2023-02-28T13:23:02;42.50;1.00
20349;DHT22;10332;50.208;18.988;2023-02-28T13:28:10;42.70;1.00
20349;DHT22;10332;50.208;18.988;2023-02-28T13:41:46;41.30;1.00
20349;DHT22;10332;50.208;18.988;2023-02-28T13:44:22;40.20;1.00
20349;DHT22;10332;50.208;18.988;2023-02-28T13:57:43;40.60;1.00
20349;DHT22;10332;50.208;18.988;2023-02-28T14:05:47;38.70;1.00
20349;DHT22;10332;50.208;18.988;2023-02-28T14:08:55;39.20;1.00
20349;DHT22;10332;50.208;18.988;2023-02-28T14:11:33;39.60;1.00
20349;DHT22;10332;50.208;18.988;2023-02-28T14:14:04;39.70;1.00
20349;DHT22;10332;50.208;18.988;2023-02-28T14:16:40;40.00;1.00
20349;DHT22;10332;50.208;18.988;2023-02-28T14:19:21;40.30;1.00
20349;DHT22;10332;50.208;18.988;2023-02-28T14:32:37;37.20;1.00
20349;DHT22;10332;50.208;18.988;2023-02-28T14:38:21;37.40;1.00
20349;DHT22;10332;50.208;18.988;2023-02-28T14:40:57;37.10;1.00
20349;DHT22;10332;50.208;18.988;2023-02-28T14:43:28;36.80;1.00
20349;DHT22;10332;50.208;18.988;2023-02-28T14:45:59;36.20;1.00
20349;DHT22;10332;50.208;18.988;2023-02-28T14:48:29;35.70;1.00
20349;DHT22;10332;50.208;18.988;2023-02-28T14:50:59;35.50;1.00
20349;DHT22;10332;50.208;18.988;2023-02-28T14:53:30;35.40;1.00
20349;DHT22;10332;50.208;18.988;2023-02-28T14:56:04;34.60;1.00
20349;DHT22;10332;50.208;18.988;2023-02-28T14:58:34;33.20;1.00
20349;DHT22;10332;50.208;18.988;2023-02-28T15:01:03;32.60;1.00
20349;DHT22;10332;50.208;18.988;2023-02-28T15:03:39;31.80;1.00
20349;DHT22;10332;50.208;18.988;2023-02-28T15:06:16;31.00;1.00
20349;DHT22;10332;50.208;18.988;2023-02-28T15:08:45;29.70;1.00
20349;DHT22;10332;50.208;18.988;2023-02-28T15:11:18;28.50;1.00
20349;DHT22;10332;50.208;18.988;2023-02-28T15:13:52;27.70;1.00
20349;DHT22;10332;50.208;18.988;2023-02-28T15:16:34;26.90;1.00
20349;DHT22;10332;50.208;18.988;2023-02-28T15:19:26;26.10;1.00
20349;DHT22;10332;50.208;18.988;2023-02-28T15:22:04;25.40;1.00
20349;DHT22;10332;50.208;18.988;2023-02-28T15:24:43;24.50;1.00
20349;DHT22;10332;50.208;18.988;2023-02-28T15:29:58;22.80;1.00
20349;DHT22;10332;50.208;18.988;2023-02-28T15:32:36;21.50;1.00
20349;DHT22;10332;50.208;18.988;2023-02-28T15:35:30;19.80;1.00
20349;DHT22;10332;50.208;18.988;2023-02-28T15:40:54;16.40;1.00
20349;DHT22;10332;50.208;18.988;2023-02-28T15:43:31;14.90;1.00
20349;DHT22;10332;50.208;18.988;2023-02-28T15:46:04;13.90;1.00
20349;DHT22;10332;50.208;18.988;2023-02-28T15:48:43;13.00;1.00
20349;DHT22;10332;50.208;18.988;2023-02-28T15:51:18;12.20;1.00
20349;DHT22;10332;50.208;18.988;2023-02-28T15:53:56;11.70;1.00
20349;DHT22;10332;50.208;18.988;2023-02-28T15:56:29;11.10;1.00
20349;DHT22;10332;50.208;18.988;2023-02-28T15:59:02;10.80;1.00
20349;DHT22;10332;50.208;18.988;2023-02-28T16:01:37;10.50;1.00
20349;DHT22;10332;50.208;18.988;2023-02-28T16:04:25;10.30;1.00
20349;DHT22;10332;50.208;18.988;2023-02-28T16:07:00;10.10;1.00
20349;DHT22;10332;50.208;18.988;2023-02-28T16:09:29;10.00;1.00
20349;DHT22;10332;50.208;18.988;2023-02-28T16:12:02;9.70;1.00
20349;DHT22;10332;50.208;18.988;2023-02-28T16:14:31;9.30;1.00
20349;DHT22;10332;50.208;18.988;2023-02-28T16:17:07;9.10;1.00
20349;DHT22;10332;50.208;18.988;2023-02-28T16:19:46;8.70;1.00
20349;DHT22;10332;50.208;18.988;2023-02-28T16:22:14;8.40;1.00
20349;DHT22;10332;50.208;18.988;2023-02-28T16:24:41;8.10;1.00
20349;DHT22;10332;50.208;18.988;2023-02-28T16:27:30;7.90;1.00
20349;DHT22;10332;50.208;18.988;2023-02-28T16:30:01;7.60;1.00
20349;DHT22;10332;50.208;18.988;2023-02-28T16:32:29;7.40;1.00
20349;DHT22;10332;50.208;18.988;2023-02-28T16:34:58;7.20;1.00
20349;DHT22;10332;50.208;18.988;2023-02-28T16:37:27;6.90;1.00
20349;DHT22;10332;50.208;18.988;2023-02-28T16:39:54;6.70;1.00
20349;DHT22;10332;50.208;18.988;2023-02-28T16:42:25;6.40;1.00
20349;DHT22;10332;50.208;18.988;2023-02-28T16:44:55;6.20;1.00
20349;DHT22;10332;50.208;18.988;2023-02-28T16:47:23;5.90;1.00
20349;DHT22;10332;50.208;18.988;2023-02-28T16:49:53;5.80;1.00
20349;DHT22;10332;50.208;18.988;2023-02-28T16:52:21;5.60;1.00
20349;DHT22;10332;50.208;18.988;2023-02-28T16:54:48;5.40;1.00
20349;DHT22;10332;50.208;18.988;2023-02-28T16:57:21;5.40;1.00
20349;DHT22;10332;50.208;18.988;2023-02-28T16:59:52;5.20;1.00
20349;DHT22;10332;50.208;18.988;2023-02-28T17:02:19;5.20;1.00
20349;DHT22;10332;50.208;18.988;2023-02-28T17:04:47;5.00;1.00
20349;DHT22;10332;50.208;18.988;2023-02-28T17:07:16;4.90;1.00
20349;DHT22;10332;50.208;18.988;2023-02-28T17:09:44;4.80;1.00
20349;DHT22;10332;50.208;18.988;2023-02-28T17:12:13;4.80;1.00
20349;DHT22;10332;50.208;18.988;2023-02-28T17:14:41;4.70;1.00
20349;DHT22;10332;50.208;18.988;2023-02-28T17:17:17;4.60;1.00
20349;DHT22;10332;50.208;18.988;2023-02-28T17:19:47;4.50;1.00
20349;DHT22;10332;50.208;18.988;2023-02-28T17:22:15;4.40;1.00
20349;DHT22;10332;50.208;18.988;2023-02-28T17:24:43;4.30;1.00
20349;DHT22;10332;50.208;18.988;2023-02-28T17:27:12;4.30;1.00
20349;DHT22;10332;50.208;18.988;2023-02-28T17:29:40;4.20;1.00
20349;DHT22;10332;50.208;18.988;2023-02-28T17:32:09;4.10;1.00
20349;DHT22;10332;50.208;18.988;2023-02-28T17:34:44;4.00;1.00
20349;DHT22;10332;50.208;18.988;2023-02-28T17:37:13;3.90;1.00
20349;DHT22;10332;50.208;18.988;2023-02-28T17:39:40;3.90;1.00
20349;DHT22;10332;50.208;18.988;2023-02-28T17:42:08;3.90;1.00
20349;DHT22;10332;50.208;18.988;2023-02-28T17:44:35;3.80;1.00
20349;DHT22;10332;50.208;18.988;2023-02-28T17:47:05;3.80;1.00
20349;DHT22;10332;50.208;18.988;2023-02-28T17:49:32;3.70;1.00
20349;DHT22;10332;50.208;18.988;2023-02-28T17:52:00;3.60;1.00
20349;DHT22;10332;50.208;18.988;2023-02-28T17:54:28;3.60;1.00
20349;DHT22;10332;50.208;18.988;2023-02-28T17:56:55;3.50;1.00
20349;DHT22;10332;50.208;18.988;2023-02-28T17:59:23;3.50;1.00
20349;DHT22;10332;50.208;18.988;2023-02-28T18:01:50;3.50;1.00
20349;DHT22;10332;50.208;18.988;2023-02-28T18:04:18;3.40;1.00
20349;DHT22;10332;50.208;18.988;2023-02-28T18:06:46;3.40;1.00
20349;DHT22;10332;50.208;18.988;2023-02-28T18:09:24;3.30;1.00
20349;DHT22;10332;50.208;18.988;2023-02-28T18:11:54;3.20;1.00
20349;DHT22;10332;50.208;18.988;2023-02-28T18:14:24;3.10;1.00
20349;DHT22;10332;50.208;18.988;2023-02-28T18:16:53;3.10;1.00
20349;DHT22;10332;50.208;18.988;2023-02-28T18:19:21;3.00;1.00
20349;DHT22;10332;50.208;18.988;2023-02-28T18:21:51;3.00;1.00
20349;DHT22;10332;50.208;18.988;2023-02-28T18:24:21;3.00;1.00
20349;DHT22;10332;50.208;18.988;2023-02-28T18:26:51;2.90;1.00
20349;DHT22;10332;50.208;18.988;2023-02-28T18:29:21;2.90;1.00
20349;DHT22;10332;50.208;18.988;2023-02-28T18:31:52;2.90;1.00
20349;DHT22;10332;50.208;18.988;2023-02-28T18:34:22;2.80;1.00
20349;DHT22;10332;50.208;18.988;2023-02-28T18:36:51;2.80;1.00
20349;DHT22;10332;50.208;18.988;2023-02-28T18:39:19;2.70;1.00
20349;DHT22;10332;50.208;18.988;2023-02-28T18:41:47;2.70;1.00
20349;DHT22;10332;50.208;18.988;2023-02-28T18:44:15;2.70;1.00
20349;DHT22;10332;50.208;18.988;2023-02-28T18:46:48;2.70;1.00
20349;DHT22;10332;50.208;18.988;2023-02-28T18:49:17;2.70;1.00